Cabrillo, California
Current Conditions -  °F | °C
As of 1:53 AM on Thursday 29 Jan 2015 (Local Time) from KLGB Reporting Station
Clear Clear  
Wind Chill: 62°   Ceiling: Unl
Heat Index: 62°   Visibility: 10mi
Dew Point: 50°   Wind: 3mph
Humidity: 65%   Direction: 300°WNW
Pressure: 30.04"   Gusts: NA
Location:  33.8203°N, 118.22°W
Report Text: KLGB 290953Z 30003KT 10SM CLR 17/10 A3004 RMK AO2 SLP172 T01670100
Loading
Personal Weather Stations






























Interactive Weather Map New forecast layout! Learn more

10-Day Weather Forecast

Advertisements
Track Severe Weather on mobile